Time;durP1;ratioP1;P1;durP2;ratioP2;P2;SDS_P1;SDS_P2;PMS_P1;PMS_P2;Temp;Humidity;BMP_temperature;BMP_pressure;BME280_temperature;BME280_humidity;BME280_pressure;Samples;Min_cycle;Max_cycle;Signal;HPM_P1;HPM_P2
2021/08/29 00:01:05;;;;;;;3.42;2.90;;;;;;;24.95;54.76;100110.47;1805146;78;21009;-46
2021/08/29 00:03:31;;;;;;;3.27;2.72;;;;;;;24.95;54.77;100104.89;1798716;78;21055;-46
2021/08/29 00:05:57;;;;;;;3.30;2.50;;;;;;;24.94;54.79;100096.34;1796259;78;21115;-45
2021/08/29 00:08:23;;;;;;;3.37;2.35;;;;;;;24.95;54.78;100090.20;1805375;78;21483;-45
2021/08/29 00:10:49;;;;;;;3.58;2.33;;;;;;;24.93;54.83;100091.95;1808635;78;21111;-49
2021/08/29 00:13:15;;;;;;;3.22;2.47;;;;;;;24.92;54.82;100095.89;1800847;78;21047;-48
2021/08/29 00:15:42;;;;;;;3.33;2.50;;;;;;;24.91;54.85;100087.31;1798651;78;21146;-46
2021/08/29 00:18:08;;;;;;;3.85;2.60;;;;;;;24.92;54.85;100085.34;1796350;78;21055;-46
2021/08/29 00:20:34;;;;;;;4.42;2.72;;;;;;;24.91;54.87;100072.59;1793868;78;21624;-46
2021/08/29 00:23:00;;;;;;;2.92;2.30;;;;;;;24.91;54.87;100067.03;1802954;78;21107;-46
2021/08/29 00:25:28;;;;;;;3.98;2.42;;;;;;;24.91;54.89;100068.42;1755708;80;21017;-47
2021/08/29 00:27:55;;;;;;;3.40;2.42;;;;;;;24.90;54.89;100065.44;1770425;80;21064;-47
2021/08/29 00:30:21;;;;;;;3.65;2.70;;;;;;;24.90;54.92;100051.53;1743343;81;21074;-45
2021/08/29 00:32:47;;;;;;;2.80;2.30;;;;;;;24.89;54.92;100040.98;1748071;80;20999;-47
2021/08/29 00:35:13;;;;;;;2.98;2.33;;;;;;;24.88;54.91;100039.94;1753594;81;22027;-48
2021/08/29 00:37:39;;;;;;;3.45;2.40;;;;;;;24.87;54.94;100039.72;1770671;80;21186;-45
2021/08/29 00:40:08;;;;;;;3.67;2.50;;;;;;;24.86;54.93;100022.82;1755221;81;21387;-46
2021/08/29 00:42:34;;;;;;;3.62;2.60;;;;;;;24.86;54.93;100015.87;1753166;81;21085;-47
2021/08/29 00:45:00;;;;;;;2.65;2.20;;;;;;;24.86;54.98;100014.48;1752072;81;21682;-49
2021/08/29 00:47:26;;;;;;;3.37;2.42;;;;;;;24.86;54.98;100008.91;1755512;80;21088;-47
2021/08/29 00:49:52;;;;;;;3.80;2.25;;;;;;;24.84;54.98;100000.89;1752249;81;20913;-46
2021/08/29 00:52:19;;;;;;;2.87;2.30;;;;;;;24.85;54.99;100003.09;1753465;81;21456;-46
2021/08/29 00:54:45;;;;;;;3.92;2.22;;;;;;;24.85;54.99;99998.91;1758328;81;20972;-46
2021/08/29 00:57:11;;;;;;;3.17;2.47;;;;;;;24.84;55.00;99995.33;1752081;81;21021;-48
2021/08/29 00:59:39;;;;;;;3.75;2.40;;;;;;;24.83;55.01;99992.31;1732023;81;21048;-47
2021/08/29 01:02:10;;;;;;;3.40;2.22;;;;;;;24.83;55.03;99991.50;1795794;78;21051;-47
2021/08/29 01:04:51;;;;;;;2.95;2.30;;;;;;;24.83;55.03;99977.59;1800576;78;20989;-48
2021/08/29 01:07:24;;;;;;;3.40;2.47;;;;;;;24.82;55.02;99974.03;1790344;78;21000;-46
2021/08/29 01:09:55;;;;;;;4.72;2.20;;;;;;;24.80;55.02;99965.81;1793130;78;20988;-46
2021/08/29 01:12:26;;;;;;;3.35;2.22;;;;;;;24.81;55.02;99964.66;1800384;78;22366;-50
2021/08/29 01:14:53;;;;;;;2.40;2.10;;;;;;;24.80;55.02;99968.02;1785797;78;21020;-48
2021/08/29 01:17:20;;;;;;;3.08;2.30;;;;;;;24.79;55.04;99966.39;1795146;78;21008;-46
2021/08/29 01:19:51;;;;;;;2.87;1.92;;;;;;;24.80;55.06;99965.81;1762662;78;21080;-48
2021/08/29 01:22:17;;;;;;;2.95;2.30;;;;;;;24.79;55.08;99965.59;1759639;80;21480;-46
2021/08/29 01:24:44;;;;;;;3.25;2.27;;;;;;;24.79;55.08;99971.16;1726212;81;21991;-47
2021/08/29 01:27:24;;;;;;;2.70;2.20;;;;;;;24.77;55.10;99978.49;1726262;82;21051;-46
2021/08/29 01:29:50;;;;;;;;;;;;;;;24.78;55.09;99984.86;1787014;78;20971;-47
2021/08/29 01:32:16;;;;;;;2.33;2.00;;;;;;;24.77;55.09;99980.47;1796160;78;20140;-46
2021/08/29 01:34:43;;;;;;;2.98;2.08;;;;;;;24.75;55.10;99981.41;1789471;78;21058;-47
2021/08/29 01:37:10;;;;;;;2.70;2.10;;;;;;;24.74;55.11;99983.98;1792980;78;21545;-47
2021/08/29 01:39:36;;;;;;;3.42;2.33;;;;;;;24.74;55.13;99972.86;1793547;78;21590;-48
2021/08/29 01:42:03;;;;;;;3.20;2.20;;;;;;;24.73;55.13;99981.78;1791175;78;21043;-49
2021/08/29 01:44:29;;;;;;;2.98;2.12;;;;;;;24.73;55.13;99980.39;1809333;78;21016;-45
2021/08/29 01:46:55;;;;;;;3.15;1.87;;;;;;;24.73;55.15;99976.80;1794557;78;21538;-48
2021/08/29 01:49:22;;;;;;;3.02;2.27;;;;;;;24.73;55.15;99975.41;1795608;78;21221;-47
2021/08/29 01:51:48;;;;;;;2.60;2.10;;;;;;;24.73;55.15;99974.83;1733720;79;21440;-46
2021/08/29 01:54:14;;;;;;;3.33;2.40;;;;;;;24.72;55.18;99971.83;1798892;78;20964;-48
2021/08/29 01:57:04;;;;;;;2.50;1.90;;;;;;;24.72;55.17;99971.83;1804325;78;20875;-45
2021/08/29 01:59:30;;;;;;;3.25;2.40;;;;;;;24.71;55.16;99968.81;1768320;78;21036;-47
2021/08/29 02:01:57;;;;;;;3.30;2.22;;;;;;;24.71;55.15;99968.81;1787688;79;21270;-46
2021/08/29 02:04:24;;;;;;;2.60;2.12;;;;;;;24.70;55.17;99974.15;1787518;78;20979;-46
2021/08/29 02:07:05;;;;;;;2.85;2.08;;;;;;;24.71;55.20;99979.13;1798755;78;20997;-48
2021/08/29 02:09:32;;;;;;;3.10;2.00;;;;;;;24.69;55.18;99976.73;1733774;78;20958;-46
2021/08/29 02:11:58;;;;;;;3.05;2.20;;;;;;;24.69;55.18;99978.13;1793592;78;21570;-46
2021/08/29 02:14:29;;;;;;;2.67;2.10;;;;;;;24.69;55.22;99980.09;1794628;78;21285;-49
2021/08/29 02:16:55;;;;;;;;;;;;;;;24.69;55.19;99987.05;1799944;78;21040;-47
2021/08/29 02:19:25;;;;;;;3.33;2.22;;;;;;;24.67;55.19;99981.84;1790134;78;20719;-48
2021/08/29 02:21:52;;;;;;;2.42;1.95;;;;;;;24.67;55.20;99986.59;1792568;78;21051;-45
2021/08/29 02:24:23;;;;;;;3.22;2.08;;;;;;;24.66;55.21;99986.37;1805121;78;21024;-49
2021/08/29 02:26:49;;;;;;;2.67;1.87;;;;;;;24.65;55.23;99990.34;1792451;78;21076;-46
2021/08/29 02:29:16;;;;;;;2.80;1.90;;;;;;;24.65;55.25;99998.11;1796542;78;21411;-47
2021/08/29 02:31:44;;;;;;;2.62;2.00;;;;;;;24.65;55.24;99986.17;1784952;78;21008;-49
2021/08/29 02:34:10;;;;;;;2.72;1.95;;;;;;;24.65;55.24;99988.38;1793967;78;21138;-50
2021/08/29 02:36:36;;;;;;;2.47;2.17;;;;;;;24.64;55.24;99995.67;1792923;78;21046;-46
2021/08/29 02:39:03;;;;;;;2.90;2.12;;;;;;;24.65;55.24;99987.56;1790975;78;21551;-46
2021/08/29 02:41:29;;;;;;;3.42;2.10;;;;;;;24.64;55.26;99981.77;1798397;78;20918;-48
2021/08/29 02:43:55;;;;;;;3.30;2.15;;;;;;;24.64;55.25;99983.16;1739516;81;21012;-47
2021/08/29 02:46:23;;;;;;;2.72;1.80;;;;;;;24.64;55.24;99988.14;1760385;80;21014;-45
2021/08/29 02:48:49;;;;;;;3.72;2.10;;;;;;;24.64;55.26;99981.77;1757787;80;21119;-49
2021/08/29 02:51:15;;;;;;;2.45;1.80;;;;;;;24.64;55.26;99977.60;1768121;80;21103;-47
2021/08/29 02:53:42;;;;;;;2.37;1.62;;;;;;;24.63;55.26;99975.40;1734091;81;21561;-46
2021/08/29 02:56:08;;;;;;;2.60;2.10;;;;;;;24.63;55.25;99975.40;1785722;78;21151;-49
2021/08/29 02:58:35;;;;;;;2.70;1.90;;;;;;;24.63;55.26;99974.01;1784156;78;20989;-46
2021/08/29 03:01:02;;;;;;;2.15;1.85;;;;;;;24.63;55.27;99978.77;1767424;78;21617;-46
2021/08/29 03:03:30;;;;;;;1.85;1.52;;;;;;;24.62;55.28;99973.78;1772917;78;21163;-46
2021/08/29 03:05:57;;;;;;;2.00;1.67;;;;;;;24.62;55.26;99971.00;1778502;78;20999;-45
2021/08/29 03:08:23;;;;;;;2.80;1.70;;;;;;;24.63;55.27;99971.23;1766675;78;21111;-47
2021/08/29 03:10:49;;;;;;;2.10;1.70;;;;;;;24.62;55.27;99964.63;1772704;78;21024;-46
2021/08/29 03:13:16;;;;;;;2.40;1.80;;;;;;;24.63;55.27;99971.81;1769737;78;21010;-47
2021/08/29 03:15:42;;;;;;;2.42;1.72;;;;;;;24.62;55.27;99967.41;1785404;78;21111;-49
2021/08/29 03:18:09;;;;;;;2.00;1.60;;;;;;;24.64;55.27;99974.81;1759473;78;20941;-47
2021/08/29 03:20:36;;;;;;;3.05;2.00;;;;;;;24.62;55.28;99963.23;1773962;78;20973;-47
2021/08/29 03:23:03;;;;;;;2.35;1.80;;;;;;;24.61;55.28;99958.29;1774296;78;21004;-47
2021/08/29 03:25:30;;;;;;;2.47;1.70;;;;;;;24.62;55.27;99957.67;1783288;78;21127;-45
2021/08/29 03:27:57;;;;;;;2.10;1.57;;;;;;;24.62;55.27;99949.33;1779734;78;21163;-45
2021/08/29 03:30:23;;;;;;;2.70;1.47;;;;;;;24.61;55.27;99956.09;1762757;78;20998;-46
2021/08/29 03:32:49;;;;;;;2.30;1.70;;;;;;;24.61;55.27;99957.48;1766493;78;21003;-45
2021/08/29 03:35:17;;;;;;;2.30;1.92;;;;;;;24.61;55.27;99954.12;1773005;78;21557;-45
2021/08/29 03:37:44;;;;;;;2.40;1.85;;;;;;;24.60;55.28;99957.25;1776835;78;21547;-48
2021/08/29 03:40:12;;;;;;;2.35;1.67;;;;;;;24.61;55.25;99953.30;1759654;78;21730;-48
2021/08/29 03:42:38;;;;;;;1.95;1.52;;;;;;;24.59;55.29;99952.27;1761154;78;20980;-45
2021/08/29 03:45:07;;;;;;;2.55;1.67;;;;;;;24.60;55.29;99952.50;1771898;78;20883;-47
2021/08/29 03:47:35;;;;;;;2.77;1.92;;;;;;;24.59;55.29;99948.09;1766245;78;21019;-46
2021/08/29 03:50:03;;;;;;;2.12;1.67;;;;;;;24.58;55.29;99942.31;1771402;78;21087;-46
2021/08/29 03:52:29;;;;;;;2.30;1.72;;;;;;;24.59;55.30;99943.92;1783540;78;21110;-45
2021/08/29 03:54:55;;;;;;;2.62;1.60;;;;;;;24.58;55.30;99940.92;1768247;78;21062;-46
2021/08/29 03:57:22;;;;;;;2.62;1.60;;;;;;;24.57;55.30;99941.50;1771128;78;21022;-47
2021/08/29 03:59:49;;;;;;;2.25;1.75;;;;;;;24.57;55.31;99944.28;1780207;78;21005;-46
2021/08/29 04:02:16;;;;;;;2.22;1.60;;;;;;;24.57;55.32;99948.45;1795865;78;21050;-47
2021/08/29 04:04:42;;;;;;;2.15;1.77;;;;;;;24.57;55.31;99945.67;1793369;78;21093;-45
2021/08/29 04:07:09;;;;;;;2.67;2.00;;;;;;;24.57;55.31;99942.89;1785686;78;21096;-47
2021/08/29 04:09:35;;;;;;;2.75;2.12;;;;;;;24.57;55.31;99942.89;1799519;78;20989;-48
2021/08/29 04:12:03;;;;;;;1.85;1.40;;;;;;;24.57;55.33;99937.33;1794685;78;21018;-46
2021/08/29 04:14:29;;;;;;;2.02;1.60;;;;;;;24.56;55.33;99946.86;1788669;78;21006;-45
2021/08/29 04:16:57;;;;;;;2.10;1.70;;;;;;;24.56;55.33;99945.47;1783989;78;21429;-46
2021/08/29 04:19:25;;;;;;;2.52;1.85;;;;;;;24.58;55.32;99946.48;1789331;78;21072;-46
2021/08/29 04:21:53;;;;;;;2.05;1.67;;;;;;;24.58;55.32;99949.27;1798625;78;21530;-49
2021/08/29 04:24:19;;;;;;;2.65;1.42;;;;;;;24.57;55.32;99949.84;1799351;78;21013;-47
2021/08/29 04:26:46;;;;;;;2.30;1.60;;;;;;;24.57;55.32;99943.47;1784051;78;21546;-46
2021/08/29 04:29:13;;;;;;;2.30;1.90;;;;;;;24.57;55.35;99942.89;1796939;78;21115;-47
2021/08/29 04:31:39;;;;;;;3.72;2.08;;;;;;;24.57;55.32;99938.72;1800508;78;20990;-45
2021/08/29 04:34:09;;;;;;;2.47;1.50;;;;;;;24.56;55.33;99924.62;1791854;79;21035;-47
2021/08/29 04:36:36;;;;;;;2.20;1.80;;;;;;;24.58;55.33;99939.53;1800825;78;21401;-46
2021/08/29 04:39:05;;;;;;;2.22;1.45;;;;;;;24.56;55.34;99935.73;1794490;78;21130;-46
2021/08/29 04:41:31;;;;;;;2.10;1.70;;;;;;;24.56;55.33;99939.10;1795691;78;21220;-47
2021/08/29 04:43:57;;;;;;;2.98;1.90;;;;;;;24.56;55.32;99935.73;1785921;78;21021;-46
2021/08/29 04:46:24;;;;;;;2.90;2.00;;;;;;;24.56;55.32;99940.49;1798182;78;20994;-46
2021/08/29 04:48:50;;;;;;;2.47;1.80;;;;;;;24.56;55.33;99941.30;1781393;78;21040;-45
2021/08/29 04:51:16;;;;;;;2.30;1.62;;;;;;;24.56;55.34;99953.81;1794112;78;20985;-47
2021/08/29 04:53:42;;;;;;;2.08;1.47;;;;;;;24.56;55.32;99951.03;1797063;78;21269;-45
2021/08/29 04:56:08;;;;;;;2.20;1.80;;;;;;;24.56;55.33;99951.03;1793272;78;20953;-44
2021/08/29 04:58:34;;;;;;;2.00;1.55;;;;;;;24.57;55.35;99954.02;1787295;78;20937;-48
2021/08/29 05:01:00;;;;;;;2.90;1.90;;;;;;;24.57;55.35;99955.41;1797614;78;21524;-45
2021/08/29 05:03:26;;;;;;;1.72;1.40;;;;;;;24.57;55.33;99960.16;1794088;78;20990;-51
2021/08/29 05:05:53;;;;;;;2.52;1.67;;;;;;;24.57;55.34;99958.77;1786540;78;21155;-46
2021/08/29 05:08:19;;;;;;;2.22;1.72;;;;;;;24.57;55.32;99958.77;1784935;78;20997;-46
2021/08/29 05:10:45;;;;;;;2.30;1.57;;;;;;;24.58;55.35;99960.39;1797521;78;21026;-47
2021/08/29 05:13:11;;;;;;;2.67;1.70;;;;;;;24.56;55.34;99959.38;1799812;78;21006;-46
2021/08/29 05:15:37;;;;;;;1.95;1.65;;;;;;;24.58;55.31;99961.20;1796665;78;20878;-48
2021/08/29 05:18:03;;;;;;;2.42;1.77;;;;;;;24.58;55.34;99958.41;1797067;78;21289;-45
2021/08/29 05:20:30;;;;;;;2.47;1.77;;;;;;;24.58;55.35;99951.46;1797553;78;20964;-48
2021/08/29 05:22:56;;;;;;;2.40;1.87;;;;;;;24.58;55.32;99945.90;1792771;78;21550;-47
2021/08/29 05:25:22;;;;;;;2.80;1.50;;;;;;;24.59;55.30;99953.66;1790426;78;20988;-48
2021/08/29 05:27:48;;;;;;;2.60;1.72;;;;;;;24.61;55.29;99947.74;1793957;78;21104;-46
2021/08/29 05:30:14;;;;;;;2.72;2.05;;;;;;;24.61;55.28;99947.16;1795871;78;21061;-46
2021/08/29 05:32:40;;;;;;;3.10;1.70;;;;;;;24.61;55.28;99941.59;1788756;78;21458;-46
2021/08/29 05:35:08;;;;;;;2.58;1.80;;;;;;;24.62;55.28;99939.59;1792623;78;20998;-46
2021/08/29 05:37:34;;;;;;;2.67;1.67;;;;;;;24.62;55.28;99934.03;1726793;81;21064;-45
2021/08/29 05:40:00;;;;;;;2.40;1.77;;;;;;;24.61;55.29;99935.23;1750775;79;20907;-49
2021/08/29 05:42:26;;;;;;;2.62;1.75;;;;;;;24.61;55.27;99929.66;1752419;80;21066;-47
2021/08/29 05:44:52;;;;;;;2.72;1.77;;;;;;;24.62;55.28;99927.08;1745556;79;21013;-47
2021/08/29 05:47:18;;;;;;;2.50;1.80;;;;;;;24.62;55.30;99922.91;1755074;79;21092;-45
2021/08/29 05:49:44;;;;;;;2.35;1.72;;;;;;;24.61;55.30;99915.18;1751791;80;20962;-49
2021/08/29 05:52:10;;;;;;;3.02;1.70;;;;;;;24.62;55.28;99917.34;1751657;80;20978;-45
2021/08/29 05:54:36;;;;;;;2.25;1.85;;;;;;;24.61;55.30;99906.83;1749441;80;21580;-45
2021/08/29 05:57:04;;;;;;;2.92;2.10;;;;;;;24.62;55.28;99903.44;1748793;80;21015;-47
2021/08/29 05:59:30;;;;;;;1.98;1.75;;;;;;;24.62;55.28;99905.64;1760594;79;21052;-45
2021/08/29 06:01:56;;;;;;;2.25;1.72;;;;;;;24.64;55.27;99895.55;1756148;80;21647;-47
2021/08/29 06:04:22;;;;;;;2.50;1.82;;;;;;;24.63;55.26;99891.16;1753390;80;21127;-47
2021/08/29 06:06:48;;;;;;;2.50;2.00;;;;;;;24.64;55.24;99894.16;1754808;80;21639;-47
2021/08/29 06:09:14;;;;;;;2.12;1.70;;;;;;;24.65;55.25;99893.00;1757535;80;20960;-48
2021/08/29 06:11:40;;;;;;;2.00;1.45;;;;;;;24.65;55.20;99889.63;1750097;80;21003;-45
2021/08/29 06:14:06;;;;;;;2.40;1.90;;;;;;;24.65;55.18;99886.84;1790537;78;20965;-47
2021/08/29 06:16:33;;;;;;;2.72;2.00;;;;;;;24.67;55.16;99887.27;1796634;79;20883;-48
2021/08/29 06:18:59;;;;;;;2.00;1.50;;;;;;;24.67;55.12;99884.49;1791645;79;21079;-45
2021/08/29 06:21:25;;;;;;;3.00;1.72;;;;;;;24.68;55.09;99886.11;1793220;78;21008;-45
2021/08/29 06:23:53;;;;;;;2.55;1.65;;;;;;;24.70;55.07;99882.94;1799353;78;21034;-49
2021/08/29 06:26:19;;;;;;;4.25;1.80;;;;;;;24.71;55.02;99890.93;1786358;78;21093;-47
2021/08/29 06:28:45;;;;;;;2.98;2.40;;;;;;;24.72;55.01;99890.34;1753105;80;21048;-47
2021/08/29 06:31:11;;;;;;;2.65;1.75;;;;;;;24.73;54.99;99894.16;1751729;80;21017;-47
2021/08/29 06:33:37;;;;;;;2.10;1.67;;;;;;;24.73;54.95;99898.34;1793313;78;20964;-46
2021/08/29 06:36:04;;;;;;;2.42;1.82;;;;;;;24.75;54.96;99901.53;1791587;78;20994;-46
2021/08/29 06:38:30;;;;;;;2.50;1.77;;;;;;;24.75;54.93;99895.97;1796595;78;21862;-47
2021/08/29 06:40:56;;;;;;;2.52;1.80;;;;;;;24.75;54.90;99904.31;1791932;78;21169;-45
2021/08/29 06:43:22;;;;;;;2.58;1.80;;;;;;;24.76;54.89;99901.77;1794555;78;21752;-45
2021/08/29 06:45:48;;;;;;;2.60;1.85;;;;;;;24.78;54.88;99901.41;1789160;78;20925;-47
2021/08/29 06:48:14;;;;;;;2.30;1.85;;;;;;;24.80;54.82;99907.39;1790652;78;20985;-47
2021/08/29 06:50:40;;;;;;;2.65;1.75;;;;;;;24.81;54.82;99907.62;1797038;78;20948;-47
2021/08/29 06:53:06;;;;;;;2.75;2.17;;;;;;;24.82;54.79;99903.67;1785686;78;20923;-48
2021/08/29 06:55:33;;;;;;;2.37;1.70;;;;;;;24.83;54.75;99901.89;1796022;78;21588;-47
2021/08/29 06:57:59;;;;;;;3.52;1.77;;;;;;;24.86;54.72;99906.77;1797463;78;20953;-47
2021/08/29 07:00:25;;;;;;;2.87;2.05;;;;;;;24.88;54.70;99909.17;1801495;78;21114;-47
2021/08/29 07:02:51;;;;;;;2.35;1.87;;;;;;;24.89;54.68;99915.77;1790970;78;21040;-48
2021/08/29 07:05:17;;;;;;;2.27;1.80;;;;;;;24.91;54.63;99920.95;1799980;78;20978;-47
2021/08/29 07:07:43;;;;;;;3.10;2.08;;;;;;;24.92;54.61;99923.38;1797442;78;21442;-46
2021/08/29 07:10:10;;;;;;;2.50;2.00;;;;;;;24.93;54.59;99920.00;1796999;78;21287;-47
2021/08/29 07:12:37;;;;;;;2.50;1.80;;;;;;;24.93;54.59;99924.98;1793297;78;21021;-46
2021/08/29 07:15:05;;;;;;;2.37;1.75;;;;;;;24.94;54.56;99918.84;1793417;79;21032;-48
2021/08/29 07:17:31;;;;;;;1.80;1.60;;;;;;;24.94;54.53;99919.65;1794194;78;21142;-46
2021/08/29 07:19:58;;;;;;;2.22;1.82;;;;;;;24.93;54.53;99915.25;1789431;78;21048;-45
2021/08/29 07:22:24;;;;;;;2.58;2.05;;;;;;;24.94;54.52;99916.06;1794846;78;20979;-49
2021/08/29 07:24:50;;;;;;;2.77;2.00;;;;;;;24.94;54.53;99917.45;1803277;78;21028;-47
2021/08/29 07:27:16;;;;;;;2.55;1.87;;;;;;;24.96;54.53;99920.65;1797317;78;21067;-46
2021/08/29 07:29:43;;;;;;;2.42;2.05;;;;;;;24.95;54.49;99913.50;1792161;78;21081;-47
2021/08/29 07:32:09;;;;;;;2.62;1.98;;;;;;;24.95;54.49;99919.06;1799929;78;21000;-50
2021/08/29 07:34:35;;;;;;;2.17;1.57;;;;;;;24.96;54.48;99924.83;1799757;79;21032;-46
2021/08/29 07:37:02;;;;;;;1.92;1.65;;;;;;;24.95;54.49;99916.28;1793793;78;21008;-48
2021/08/29 07:39:28;;;;;;;2.98;2.00;;;;;;;24.96;54.46;99916.48;1784529;79;21056;-47
2021/08/29 07:41:55;;;;;;;2.47;1.90;;;;;;;24.96;54.45;99920.07;1794956;78;21001;-46
2021/08/29 07:44:21;;;;;;;3.00;2.02;;;;;;;24.96;54.46;99920.65;1791009;78;21429;-47
2021/08/29 07:46:47;;;;;;;2.47;1.95;;;;;;;24.96;54.45;99922.05;1789299;79;21044;-45
2021/08/29 07:49:13;;;;;;;2.35;1.98;;;;;;;24.97;54.45;99932.01;1788977;78;21479;-45
2021/08/29 07:51:40;;;;;;;2.37;2.00;;;;;;;24.97;54.44;99930.62;1794519;78;20975;-48
2021/08/29 07:54:06;;;;;;;2.27;1.92;;;;;;;24.98;54.44;99932.23;1792936;78;21034;-47
2021/08/29 07:56:32;;;;;;;3.20;1.70;;;;;;;24.97;54.44;99935.59;1786183;79;21471;-46
2021/08/29 07:58:58;;;;;;;2.00;1.62;;;;;;;24.98;54.43;99937.80;1787196;78;21052;-46
2021/08/29 08:01:24;;;;;;;2.62;1.80;;;;;;;24.98;54.41;99945.56;1803777;78;21677;-46
2021/08/29 08:03:51;;;;;;;2.42;1.82;;;;;;;24.98;54.41;99960.88;1797923;78;21024;-45
2021/08/29 08:06:17;;;;;;;2.72;2.10;;;;;;;24.97;54.41;99977.92;1798171;78;21019;-46
2021/08/29 08:08:43;;;;;;;2.25;1.90;;;;;;;24.96;54.42;99986.86;1798840;78;21487;-46
2021/08/29 08:11:10;;;;;;;2.80;2.25;;;;;;;24.95;54.44;99987.24;1798590;78;21041;-48
2021/08/29 08:13:36;;;;;;;2.40;1.80;;;;;;;24.95;54.43;100010.89;1810349;78;21020;-48
2021/08/29 08:16:02;;;;;;;2.65;1.87;;;;;;;24.93;54.44;100005.69;1809247;78;21037;-45
2021/08/29 08:18:28;;;;;;;2.10;1.90;;;;;;;24.93;54.44;100005.69;1801871;78;21040;-50
2021/08/29 08:20:55;;;;;;;2.95;1.98;;;;;;;24.92;54.43;100001.87;1804308;78;21090;-45
2021/08/29 08:23:21;;;;;;;2.58;2.10;;;;;;;24.91;54.45;99987.73;1760991;80;21014;-47
2021/08/29 08:25:47;;;;;;;2.67;1.85;;;;;;;24.90;54.47;99969.45;1734591;81;20985;-46
2021/08/29 08:28:14;;;;;;;3.22;2.33;;;;;;;24.89;54.47;99935.25;1768710;80;20988;-47
2021/08/29 08:30:40;;;;;;;3.00;2.20;;;;;;;24.89;54.46;99916.35;1748134;81;21079;-45
2021/08/29 08:33:06;;;;;;;2.22;1.80;;;;;;;24.88;54.49;99900.23;1743601;81;21455;-45
2021/08/29 08:35:32;;;;;;;3.40;2.10;;;;;;;24.88;54.47;99912.77;1764893;80;21049;-47
2021/08/29 08:37:59;;;;;;;2.67;1.80;;;;;;;24.88;54.48;99887.72;1754454;80;21047;-45
2021/08/29 08:40:25;;;;;;;2.80;1.90;;;;;;;24.88;54.49;99882.73;1752901;81;21103;-46
2021/08/29 08:42:52;;;;;;;3.08;2.30;;;;;;;24.88;54.50;99899.44;1760899;80;21061;-47
2021/08/29 08:45:18;;;;;;;2.02;1.75;;;;;;;24.88;54.51;99903.61;1756629;81;21392;-47
2021/08/29 08:47:45;;;;;;;3.50;2.05;;;;;;;24.89;54.53;99895.48;1753910;81;21116;-45
2021/08/29 08:50:12;;;;;;;2.50;1.87;;;;;;;24.91;54.53;99904.25;1732477;81;21525;-45
2021/08/29 08:52:40;;;;;;;3.05;2.12;;;;;;;24.91;54.53;99905.64;1725314;81;20988;-47
2021/08/29 08:55:08;;;;;;;3.17;2.08;;;;;;;24.92;54.51;99898.91;1770270;80;21087;-47
2021/08/29 08:57:34;;;;;;;3.87;1.95;;;;;;;24.93;54.52;99913.86;1768341;80;21475;-46
2021/08/29 09:00:00;;;;;;;2.27;2.00;;;;;;;24.95;54.51;99900.98;1732987;81;21024;-49
2021/08/29 09:02:27;;;;;;;2.17;1.75;;;;;;;24.95;54.50;99894.02;1731296;81;21074;-46
2021/08/29 09:04:54;;;;;;;2.37;1.98;;;;;;;24.96;54.51;99897.00;1793257;78;21030;-48
2021/08/29 09:07:20;;;;;;;2.83;2.00;;;;;;;24.96;54.51;99901.17;1793379;78;21056;-47
2021/08/29 09:09:47;;;;;;;3.92;2.22;;;;;;;24.96;54.52;99905.34;1794473;79;21470;-46
2021/08/29 09:12:13;;;;;;;2.02;1.82;;;;;;;24.96;54.51;99897.81;1808352;78;21079;-45
2021/08/29 09:14:46;;;;;;;2.27;1.82;;;;;;;24.96;54.53;99899.78;1791956;78;21013;-45
2021/08/29 09:17:33;;;;;;;2.98;2.17;;;;;;;24.98;54.55;99900.23;1801631;78;21493;-48
2021/08/29 09:20:16;;;;;;;3.02;2.27;;;;;;;24.97;54.55;99893.86;1797855;78;20955;-48
2021/08/29 09:22:44;;;;;;;2.60;1.75;;;;;;;24.99;54.53;99890.10;1790996;78;21106;-47
2021/08/29 09:25:17;;;;;;;3.33;2.00;;;;;;;25.00;54.50;99897.87;1803229;78;21062;-46
2021/08/29 09:27:45;;;;;;;2.72;2.05;;;;;;;24.99;54.53;99890.10;1792382;78;21149;-47
2021/08/29 09:30:13;;;;;;;3.17;2.30;;;;;;;25.01;54.53;99895.31;1782238;78;20975;-48
2021/08/29 09:32:57;;;;;;;2.70;2.20;;;;;;;25.03;54.52;99893.56;1799793;78;20939;-46
2021/08/29 09:35:32;;;;;;;2.72;2.10;;;;;;;25.04;54.53;99889.61;1798322;78;20882;-48
2021/08/29 09:37:59;;;;;;;3.27;2.27;;;;;;;25.04;54.52;99897.34;1789945;78;21799;-46
2021/08/29 09:40:30;;;;;;;3.37;2.42;;;;;;;25.05;54.51;99886.44;1727766;81;21082;-48
2021/08/29 09:42:57;;;;;;;3.83;2.20;;;;;;;25.06;54.53;99876.11;1730316;81;21078;-46
2021/08/29 09:45:30;;;;;;;3.72;2.80;;;;;;;25.05;54.54;99873.92;1759537;79;21464;-45
2021/08/29 09:48:06;;;;;;;2.60;2.10;;;;;;;25.05;54.54;99882.27;1762836;79;21116;-47
2021/08/29 09:50:35;;;;;;;2.83;2.37;;;;;;;25.08;54.54;99886.30;1707776;81;21032;-49
2021/08/29 09:53:09;;;;;;;2.83;2.30;;;;;;;25.09;54.54;99881.74;1737063;81;21036;-48
2021/08/29 09:55:41;;;;;;;2.83;2.30;;;;;;;25.09;54.54;99873.39;1794930;78;21056;-46
2021/08/29 09:58:31;;;;;;;3.02;2.47;;;;;;;25.10;54.54;99881.97;1792101;78;22526;-44
2021/08/29 10:01:13;;;;;;;3.53;2.40;;;;;;;25.11;54.55;99885.55;1790752;78;21254;-45
2021/08/29 10:03:51;;;;;;;4.72;2.30;;;;;;;25.11;54.54;99886.37;1789296;78;21467;-44
2021/08/29 10:06:30;;;;;;;3.00;2.47;;;;;;;25.13;54.52;99891.55;1793503;78;20986;-44
2021/08/29 10:08:58;;;;;;;2.85;2.30;;;;;;;25.12;54.52;99885.16;1743024;79;20986;-49
2021/08/29 10:11:26;;;;;;;3.20;2.47;;;;;;;25.13;54.54;99886.78;1786185;79;20995;-47
2021/08/29 10:13:54;;;;;;;3.20;2.60;;;;;;;25.14;54.53;99888.40;1797254;78;21969;-49
2021/08/29 10:16:24;;;;;;;2.87;2.20;;;;;;;25.15;54.55;99887.23;1784670;78;20977;-44
2021/08/29 10:18:54;;;;;;;3.08;2.37;;;;;;;25.16;54.55;99897.20;1800473;78;21371;-45
2021/08/29 10:21:23;;;;;;;3.12;2.75;;;;;;;25.17;54.56;99894.61;1791324;78;21028;-46
2021/08/29 10:23:52;;;;;;;3.52;2.77;;;;;;;25.19;54.53;99891.47;1799507;78;20937;-48
2021/08/29 10:26:20;;;;;;;3.17;2.50;;;;;;;25.20;54.56;99891.11;1786895;78;22167;-47
2021/08/29 10:28:54;;;;;;;3.10;2.58;;;;;;;25.23;54.56;99886.77;1796911;78;21003;-45
2021/08/29 10:31:26;;;;;;;4.15;2.80;;;;;;;25.24;54.52;99890.58;1782148;78;21008;-46
2021/08/29 10:33:52;;;;;;;3.50;2.52;;;;;;;25.26;54.52;99892.97;1790980;79;21531;-45
2021/08/29 10:36:21;;;;;;;3.20;2.55;;;;;;;25.27;54.51;99889.02;1796307;78;21102;-48
2021/08/29 10:38:48;;;;;;;3.00;2.42;;;;;;;25.28;54.51;99885.06;1756025;80;22288;-45
2021/08/29 10:41:19;;;;;;;2.77;2.45;;;;;;;25.29;54.52;99892.25;1766789;80;21004;-47
2021/08/29 10:43:45;;;;;;;3.77;2.35;;;;;;;25.30;54.53;99889.66;1757618;79;21048;-47
2021/08/29 10:46:14;;;;;;;4.17;2.62;;;;;;;25.31;54.52;99889.30;1762105;80;21090;-45
2021/08/29 10:48:41;;;;;;;3.35;2.70;;;;;;;25.33;54.51;99886.94;1753615;79;21009;-45
2021/08/29 10:51:10;;;;;;;3.15;2.33;;;;;;;25.34;54.50;99883.56;1761294;80;21111;-48
2021/08/29 10:53:50;;;;;;;3.05;2.33;;;;;;;25.34;54.51;99890.53;1707509;81;21179;-45
2021/08/29 10:56:29;;;;;;;3.22;2.52;;;;;;;25.32;54.52;99886.74;1757695;80;21115;-45
2021/08/29 10:59:14;;;;;;;3.17;2.70;;;;;;;25.31;54.52;99890.69;1749703;80;21023;-47
2021/08/29 11:01:49;;;;;;;2.85;2.40;;;;;;;25.30;54.55;99896.63;1763314;80;21014;-48
2021/08/29 11:04:28;;;;;;;3.62;2.50;;;;;;;25.30;54.59;99900.80;1738551;81;21051;-46
2021/08/29 11:06:59;;;;;;;4.08;2.62;;;;;;;25.27;54.61;99898.77;1756269;81;21142;-45
2021/08/29 11:09:37;;;;;;;2.95;2.40;;;;;;;25.26;54.63;99902.13;1751510;81;21069;-45
2021/08/29 11:12:19;;;;;;;3.58;2.55;;;;;;;25.25;54.63;99904.69;1745196;81;21051;-45
2021/08/29 11:14:53;;;;;;;3.27;2.65;;;;;;;25.25;54.65;99901.91;1757926;80;21020;-45
2021/08/29 11:17:33;;;;;;;3.15;2.62;;;;;;;25.24;54.69;99902.30;1754233;81;21771;-50
2021/08/29 11:20:08;;;;;;;3.25;2.52;;;;;;;25.24;54.67;99903.11;1750572;80;21081;-46
2021/08/29 11:22:47;;;;;;;3.70;3.00;;;;;;;25.25;54.68;99897.73;1756155;81;21059;-46
2021/08/29 11:25:22;;;;;;;3.67;2.45;;;;;;;25.24;54.69;99900.33;1753112;81;21474;-44
2021/08/29 11:27:59;;;;;;;3.52;2.90;;;;;;;25.22;54.70;99901.27;1754040;80;21055;-47
2021/08/29 11:30:40;;;;;;;3.20;2.58;;;;;;;25.23;54.71;99898.70;1750092;80;22110;-48
2021/08/29 11:33:13;;;;;;;3.45;2.70;;;;;;;25.23;54.73;99894.53;1754629;80;21016;-47
2021/08/29 11:35:50;;;;;;;3.50;2.95;;;;;;;25.23;54.72;99899.29;1751744;81;21524;-44
2021/08/29 11:38:25;;;;;;;3.17;2.55;;;;;;;25.22;54.75;99898.48;1758507;80;21041;-47